sensor_id;sensor_type;location;lat;lon;timestamp;temperature;humidity
48043;DHT22;33988;47.992;8.820;2022-12-18T00:01:27;-0.30;61.10
48043;DHT22;33988;47.992;8.820;2022-12-18T00:03:56;-0.20;61.60
48043;DHT22;33988;47.992;8.820;2022-12-18T00:06:25;-0.20;61.10
48043;DHT22;33988;47.992;8.820;2022-12-18T00:08:55;-0.20;61.10
48043;DHT22;33988;47.992;8.820;2022-12-18T00:11:24;-0.20;61.10
48043;DHT22;33988;47.992;8.820;2022-12-18T00:13:55;-0.20;61.10
48043;DHT22;33988;47.992;8.820;2022-12-18T00:16:27;-0.20;61.10
48043;DHT22;33988;47.992;8.820;2022-12-18T00:19:00;-0.20;61.10
48043;DHT22;33988;47.992;8.820;2022-12-18T00:21:32;-0.20;61.10
48043;DHT22;33988;47.992;8.820;2022-12-18T00:24:00;-0.20;61.10
48043;DHT22;33988;47.992;8.820;2022-12-18T00:26:32;-0.20;61.00
48043;DHT22;33988;47.992;8.820;2022-12-18T00:29:03;-0.20;61.00
48043;DHT22;33988;47.992;8.820;2022-12-18T00:31:34;-0.20;61.00
48043;DHT22;33988;47.992;8.820;2022-12-18T00:34:04;-0.20;61.00
48043;DHT22;33988;47.992;8.820;2022-12-18T00:36:34;-0.20;61.00
48043;DHT22;33988;47.992;8.820;2022-12-18T00:39:04;-0.20;61.10
48043;DHT22;33988;47.992;8.820;2022-12-18T00:41:36;-0.20;61.10
48043;DHT22;33988;47.992;8.820;2022-12-18T00:44:22;-0.20;61.10
48043;DHT22;33988;47.992;8.820;2022-12-18T00:46:49;-0.20;61.00
48043;DHT22;33988;47.992;8.820;2022-12-18T00:49:20;-0.20;61.10
48043;DHT22;33988;47.992;8.820;2022-12-18T00:51:47;-0.20;61.10
48043;DHT22;33988;47.992;8.820;2022-12-18T00:54:15;-0.20;61.10
48043;DHT22;33988;47.992;8.820;2022-12-18T00:56:42;-0.20;61.10
48043;DHT22;33988;47.992;8.820;2022-12-18T00:59:19;-0.20;61.20
48043;DHT22;33988;47.992;8.820;2022-12-18T01:01:46;-0.20;61.20
48043;DHT22;33988;47.992;8.820;2022-12-18T01:04:21;-0.20;61.20
48043;DHT22;33988;47.992;8.820;2022-12-18T01:06:50;-0.20;61.20
48043;DHT22;33988;47.992;8.820;2022-12-18T01:09:19;-0.20;61.20
48043;DHT22;33988;47.992;8.820;2022-12-18T01:11:49;-0.20;61.20
48043;DHT22;33988;47.992;8.820;2022-12-18T01:14:16;-0.20;61.30
48043;DHT22;33988;47.992;8.820;2022-12-18T01:16:43;-0.20;61.30
48043;DHT22;33988;47.992;8.820;2022-12-18T01:19:15;-0.20;61.30
48043;DHT22;33988;47.992;8.820;2022-12-18T01:21:44;-0.20;61.30
48043;DHT22;33988;47.992;8.820;2022-12-18T01:24:14;-0.20;61.40
48043;DHT22;33988;47.992;8.820;2022-12-18T01:26:41;-0.20;61.40
48043;DHT22;33988;47.992;8.820;2022-12-18T01:29:07;-0.20;61.40
48043;DHT22;33988;47.992;8.820;2022-12-18T01:31:37;-0.10;61.50
48043;DHT22;33988;47.992;8.820;2022-12-18T01:34:05;-0.20;61.40
48043;DHT22;33988;47.992;8.820;2022-12-18T01:36:34;-0.20;61.30
48043;DHT22;33988;47.992;8.820;2022-12-18T01:39:05;-0.20;61.30
48043;DHT22;33988;47.992;8.820;2022-12-18T01:41:34;-0.20;61.40
48043;DHT22;33988;47.992;8.820;2022-12-18T01:47:44;-0.20;61.40
48043;DHT22;33988;47.992;8.820;2022-12-18T01:52:56;-0.20;61.30
48043;DHT22;33988;47.992;8.820;2022-12-18T01:55:29;-0.20;61.40
48043;DHT22;33988;47.992;8.820;2022-12-18T01:57:59;-0.20;61.40
48043;DHT22;33988;47.992;8.820;2022-12-18T02:00:28;-0.20;61.50
48043;DHT22;33988;47.992;8.820;2022-12-18T02:02:56;-0.20;61.50
48043;DHT22;33988;47.992;8.820;2022-12-18T02:11:48;-0.20;61.60
48043;DHT22;33988;47.992;8.820;2022-12-18T02:14:39;-0.20;61.60
48043;DHT22;33988;47.992;8.820;2022-12-18T02:28:30;-0.20;61.60
48043;DHT22;33988;47.992;8.820;2022-12-18T02:31:01;-0.20;61.60
48043;DHT22;33988;47.992;8.820;2022-12-18T02:33:30;-0.10;61.80
48043;DHT22;33988;47.992;8.820;2022-12-18T02:35:59;-0.20;61.70
48043;DHT22;33988;47.992;8.820;2022-12-18T02:38:30;-0.10;61.80
48043;DHT22;33988;47.992;8.820;2022-12-18T02:41:00;-0.10;61.80
48043;DHT22;33988;47.992;8.820;2022-12-18T02:43:29;-0.10;61.80
48043;DHT22;33988;47.992;8.820;2022-12-18T02:45:58;-0.10;61.80
48043;DHT22;33988;47.992;8.820;2022-12-18T02:48:32;-0.10;61.80
48043;DHT22;33988;47.992;8.820;2022-12-18T02:51:23;-0.10;61.80
48043;DHT22;33988;47.992;8.820;2022-12-18T02:54:10;-0.10;61.90
48043;DHT22;33988;47.992;8.820;2022-12-18T02:57:12;-0.10;61.90
48043;DHT22;33988;47.992;8.820;2022-12-18T02:59:53;0.00;61.90
48043;DHT22;33988;47.992;8.820;2022-12-18T03:10:26;0.00;61.90
48043;DHT22;33988;47.992;8.820;2022-12-18T03:13:03;0.00;61.90
48043;DHT22;33988;47.992;8.820;2022-12-18T03:15:55;0.00;61.90
48043;DHT22;33988;47.992;8.820;2022-12-18T03:18:47;0.00;61.90
48043;DHT22;33988;47.992;8.820;2022-12-18T03:21:39;0.00;61.90
48043;DHT22;33988;47.992;8.820;2022-12-18T03:24:12;0.00;61.90
48043;DHT22;33988;47.992;8.820;2022-12-18T03:26:41;0.00;62.00
48043;DHT22;33988;47.992;8.820;2022-12-18T03:29:21;0.10;62.10
48043;DHT22;33988;47.992;8.820;2022-12-18T03:31:57;0.00;62.10
48043;DHT22;33988;47.992;8.820;2022-12-18T03:34:48;0.00;62.10
48043;DHT22;33988;47.992;8.820;2022-12-18T03:37:16;0.10;62.20
48043;DHT22;33988;47.992;8.820;2022-12-18T03:39:43;0.10;62.20
48043;DHT22;33988;47.992;8.820;2022-12-18T03:44:57;0.10;62.30
48043;DHT22;33988;47.992;8.820;2022-12-18T03:53:25;0.10;62.30
48043;DHT22;33988;47.992;8.820;2022-12-18T03:56:00;0.20;62.50
48043;DHT22;33988;47.992;8.820;2022-12-18T03:58:29;0.20;62.40
48043;DHT22;33988;47.992;8.820;2022-12-18T04:01:01;0.20;62.40
48043;DHT22;33988;47.992;8.820;2022-12-18T04:03:34;0.20;62.40
48043;DHT22;33988;47.992;8.820;2022-12-18T04:06:03;0.20;62.40
48043;DHT22;33988;47.992;8.820;2022-12-18T04:08:32;0.30;62.40
48043;DHT22;33988;47.992;8.820;2022-12-18T04:11:03;0.30;62.40
48043;DHT22;33988;47.992;8.820;2022-12-18T04:13:38;0.30;62.40
48043;DHT22;33988;47.992;8.820;2022-12-18T04:16:06;0.30;63.20
48043;DHT22;33988;47.992;8.820;2022-12-18T04:18:34;0.30;62.40
48043;DHT22;33988;47.992;8.820;2022-12-18T04:21:03;0.30;62.40
48043;DHT22;33988;47.992;8.820;2022-12-18T04:23:30;0.40;62.40
48043;DHT22;33988;47.992;8.820;2022-12-18T04:25:58;0.40;62.40
48043;DHT22;33988;47.992;8.820;2022-12-18T04:28:27;0.40;62.30
48043;DHT22;33988;47.992;8.820;2022-12-18T04:30:56;0.40;62.30
48043;DHT22;33988;47.992;8.820;2022-12-18T04:33:23;0.40;62.30
48043;DHT22;33988;47.992;8.820;2022-12-18T04:35:50;0.40;62.20
48043;DHT22;33988;47.992;8.820;2022-12-18T04:38:17;0.40;62.10
48043;DHT22;33988;47.992;8.820;2022-12-18T04:40:44;0.40;62.10
48043;DHT22;33988;47.992;8.820;2022-12-18T04:43:14;0.40;62.20
48043;DHT22;33988;47.992;8.820;2022-12-18T04:45:41;0.40;62.20
48043;DHT22;33988;47.992;8.820;2022-12-18T04:48:10;0.30;62.20
48043;DHT22;33988;47.992;8.820;2022-12-18T04:50:38;0.30;62.20
48043;DHT22;33988;47.992;8.820;2022-12-18T04:53:06;0.20;62.10
48043;DHT22;33988;47.992;8.820;2022-12-18T04:55:36;0.20;62.20
48043;DHT22;33988;47.992;8.820;2022-12-18T04:58:03;0.20;62.20
48043;DHT22;33988;47.992;8.820;2022-12-18T05:00:29;0.10;62.10
48043;DHT22;33988;47.992;8.820;2022-12-18T05:02:56;0.00;62.10
48043;DHT22;33988;47.992;8.820;2022-12-18T05:05:26;0.00;62.30
48043;DHT22;33988;47.992;8.820;2022-12-18T05:07:53;-0.10;62.40
48043;DHT22;33988;47.992;8.820;2022-12-18T05:10:20;-0.10;62.40
48043;DHT22;33988;47.992;8.820;2022-12-18T05:12:47;-0.20;62.50
48043;DHT22;33988;47.992;8.820;2022-12-18T05:15:30;-0.20;62.60
48043;DHT22;33988;47.992;8.820;2022-12-18T05:18:01;-0.20;62.80
48043;DHT22;33988;47.992;8.820;2022-12-18T05:20:31;-0.20;62.80
48043;DHT22;33988;47.992;8.820;2022-12-18T05:22:58;-0.20;63.00
48043;DHT22;33988;47.992;8.820;2022-12-18T05:25:27;-0.30;63.00
48043;DHT22;33988;47.992;8.820;2022-12-18T05:27:55;-0.30;62.80
48043;DHT22;33988;47.992;8.820;2022-12-18T05:30:25;-0.30;62.90
48043;DHT22;33988;47.992;8.820;2022-12-18T05:32:54;-0.30;63.00
48043;DHT22;33988;47.992;8.820;2022-12-18T05:35:20;-0.40;63.10
48043;DHT22;33988;47.992;8.820;2022-12-18T05:37:47;-0.30;63.10
48043;DHT22;33988;47.992;8.820;2022-12-18T05:40:14;-0.30;63.20
48043;DHT22;33988;47.992;8.820;2022-12-18T05:42:41;-0.30;63.20
48043;DHT22;33988;47.992;8.820;2022-12-18T05:45:08;-0.30;63.20
48043;DHT22;33988;47.992;8.820;2022-12-18T05:47:35;-0.30;63.20
48043;DHT22;33988;47.992;8.820;2022-12-18T05:50:05;-0.30;63.20
48043;DHT22;33988;47.992;8.820;2022-12-18T05:52:35;-0.30;63.20
48043;DHT22;33988;47.992;8.820;2022-12-18T05:55:02;-0.30;63.20
48043;DHT22;33988;47.992;8.820;2022-12-18T05:57:35;-0.30;63.30
48043;DHT22;33988;47.992;8.820;2022-12-18T06:00:05;-0.40;63.30
48043;DHT22;33988;47.992;8.820;2022-12-18T06:02:35;-0.40;63.30
48043;DHT22;33988;47.992;8.820;2022-12-18T06:05:05;-0.30;63.40
48043;DHT22;33988;47.992;8.820;2022-12-18T06:07:32;-0.40;63.40
48043;DHT22;33988;47.992;8.820;2022-12-18T06:10:01;-0.40;63.40
48043;DHT22;33988;47.992;8.820;2022-12-18T06:12:31;-0.30;63.60
48043;DHT22;33988;47.992;8.820;2022-12-18T06:15:00;-0.30;63.60
48043;DHT22;33988;47.992;8.820;2022-12-18T06:17:29;-0.30;63.60
48043;DHT22;33988;47.992;8.820;2022-12-18T06:19:56;-0.30;63.60
48043;DHT22;33988;47.992;8.820;2022-12-18T06:22:23;-0.30;63.70
48043;DHT22;33988;47.992;8.820;2022-12-18T06:24:51;-0.30;63.80
48043;DHT22;33988;47.992;8.820;2022-12-18T06:27:22;-0.30;63.80
48043;DHT22;33988;47.992;8.820;2022-12-18T06:29:49;-0.30;63.90
48043;DHT22;33988;47.992;8.820;2022-12-18T06:32:16;-0.30;63.80
48043;DHT22;33988;47.992;8.820;2022-12-18T06:34:43;-0.30;63.80
48043;DHT22;33988;47.992;8.820;2022-12-18T06:37:12;-0.30;63.90
48043;DHT22;33988;47.992;8.820;2022-12-18T06:39:39;-0.30;63.90
48043;DHT22;33988;47.992;8.820;2022-12-18T06:42:06;-0.30;63.90
48043;DHT22;33988;47.992;8.820;2022-12-18T06:44:33;-0.20;64.00
48043;DHT22;33988;47.992;8.820;2022-12-18T06:47:00;-0.20;64.10
48043;DHT22;33988;47.992;8.820;2022-12-18T06:49:27;-0.10;64.20
48043;DHT22;33988;47.992;8.820;2022-12-18T06:51:56;-0.10;64.20
48043;DHT22;33988;47.992;8.820;2022-12-18T06:54:23;0.00;64.20
48043;DHT22;33988;47.992;8.820;2022-12-18T06:56:52;0.00;64.20
48043;DHT22;33988;47.992;8.820;2022-12-18T06:59:22;0.00;64.20
48043;DHT22;33988;47.992;8.820;2022-12-18T07:01:49;0.10;64.20
48043;DHT22;33988;47.992;8.820;2022-12-18T07:04:17;0.10;64.20
48043;DHT22;33988;47.992;8.820;2022-12-18T07:06:46;0.10;64.20
48043;DHT22;33988;47.992;8.820;2022-12-18T07:09:13;0.10;64.10
48043;DHT22;33988;47.992;8.820;2022-12-18T07:11:44;0.20;64.20
48043;DHT22;33988;47.992;8.820;2022-12-18T07:14:11;0.20;64.10
48043;DHT22;33988;47.992;8.820;2022-12-18T07:16:40;0.20;64.10
48043;DHT22;33988;47.992;8.820;2022-12-18T07:19:07;0.20;64.10
48043;DHT22;33988;47.992;8.820;2022-12-18T07:21:37;0.10;63.90
48043;DHT22;33988;47.992;8.820;2022-12-18T07:24:06;0.10;64.00
48043;DHT22;33988;47.992;8.820;2022-12-18T07:26:35;0.10;64.00
48043;DHT22;33988;47.992;8.820;2022-12-18T07:29:02;0.10;64.20
48043;DHT22;33988;47.992;8.820;2022-12-18T07:31:29;0.10;64.30
48043;DHT22;33988;47.992;8.820;2022-12-18T07:33:56;0.10;64.30
48043;DHT22;33988;47.992;8.820;2022-12-18T07:36:23;0.10;64.30
48043;DHT22;33988;47.992;8.820;2022-12-18T07:38:51;0.10;64.30
48043;DHT22;33988;47.992;8.820;2022-12-18T07:41:19;0.00;64.30
48043;DHT22;33988;47.992;8.820;2022-12-18T07:43:47;0.00;64.30
48043;DHT22;33988;47.992;8.820;2022-12-18T07:46:15;0.00;64.30
48043;DHT22;33988;47.992;8.820;2022-12-18T07:48:45;0.00;64.40
48043;DHT22;33988;47.992;8.820;2022-12-18T07:51:16;0.00;64.60
48043;DHT22;33988;47.992;8.820;2022-12-18T07:53:44;0.00;64.60
48043;DHT22;33988;47.992;8.820;2022-12-18T07:56:12;0.00;64.70
48043;DHT22;33988;47.992;8.820;2022-12-18T07:58:53;0.00;64.80
48043;DHT22;33988;47.992;8.820;2022-12-18T08:01:23;0.10;65.00
48043;DHT22;33988;47.992;8.820;2022-12-18T08:03:51;0.10;64.90
48043;DHT22;33988;47.992;8.820;2022-12-18T08:06:22;0.10;64.90
48043;DHT22;33988;47.992;8.820;2022-12-18T08:08:54;0.10;64.90
48043;DHT22;33988;47.992;8.820;2022-12-18T08:11:26;0.10;64.90
48043;DHT22;33988;47.992;8.820;2022-12-18T08:13:54;0.10;64.90
48043;DHT22;33988;47.992;8.820;2022-12-18T08:16:22;0.10;65.10
48043;DHT22;33988;47.992;8.820;2022-12-18T08:18:49;0.10;65.10
48043;DHT22;33988;47.992;8.820;2022-12-18T08:21:22;0.10;65.00
48043;DHT22;33988;47.992;8.820;2022-12-18T08:23:54;0.20;65.10
48043;DHT22;33988;47.992;8.820;2022-12-18T08:26:25;0.20;65.10
48043;DHT22;33988;47.992;8.820;2022-12-18T08:28:54;0.30;65.20
48043;DHT22;33988;47.992;8.820;2022-12-18T08:31:23;0.30;65.10
48043;DHT22;33988;47.992;8.820;2022-12-18T08:33:52;0.30;65.00
48043;DHT22;33988;47.992;8.820;2022-12-18T08:36:21;0.40;65.00
48043;DHT22;33988;47.992;8.820;2022-12-18T08:38:48;0.40;65.10
48043;DHT22;33988;47.992;8.820;2022-12-18T08:41:18;0.40;64.90
48043;DHT22;33988;47.992;8.820;2022-12-18T08:43:51;0.40;65.10
48043;DHT22;33988;47.992;8.820;2022-12-18T08:46:43;0.30;64.80
48043;DHT22;33988;47.992;8.820;2022-12-18T08:49:11;0.30;64.80
48043;DHT22;33988;47.992;8.820;2022-12-18T08:51:39;0.30;64.80
48043;DHT22;33988;47.992;8.820;2022-12-18T08:54:11;0.30;65.10
48043;DHT22;33988;47.992;8.820;2022-12-18T08:56:40;0.30;66.00
48043;DHT22;33988;47.992;8.820;2022-12-18T08:59:08;0.20;65.60
48043;DHT22;33988;47.992;8.820;2022-12-18T09:01:43;0.30;65.10
48043;DHT22;33988;47.992;8.820;2022-12-18T09:04:10;0.30;65.10
48043;DHT22;33988;47.992;8.820;2022-12-18T09:06:39;0.30;66.00
48043;DHT22;33988;47.992;8.820;2022-12-18T09:09:09;0.30;65.20
48043;DHT22;33988;47.992;8.820;2022-12-18T09:11:39;0.30;65.30
48043;DHT22;33988;47.992;8.820;2022-12-18T09:14:09;0.30;65.30
48043;DHT22;33988;47.992;8.820;2022-12-18T09:16:38;0.30;65.50
48043;DHT22;33988;47.992;8.820;2022-12-18T09:19:05;0.30;65.40
48043;DHT22;33988;47.992;8.820;2022-12-18T09:21:38;0.30;65.30
48043;DHT22;33988;47.992;8.820;2022-12-18T09:24:14;0.30;65.40
48043;DHT22;33988;47.992;8.820;2022-12-18T09:26:42;0.40;65.60
48043;DHT22;33988;47.992;8.820;2022-12-18T09:29:14;0.40;65.50
48043;DHT22;33988;47.992;8.820;2022-12-18T09:31:44;0.40;65.50
48043;DHT22;33988;47.992;8.820;2022-12-18T09:34:11;0.40;65.50
48043;DHT22;33988;47.992;8.820;2022-12-18T09:36:38;0.40;65.60
48043;DHT22;33988;47.992;8.820;2022-12-18T09:39:05;0.40;65.60
48043;DHT22;33988;47.992;8.820;2022-12-18T09:41:55;0.50;65.70
48043;DHT22;33988;47.992;8.820;2022-12-18T09:44:35;0.40;65.70
48043;DHT22;33988;47.992;8.820;2022-12-18T09:47:34;0.40;65.50
48043;DHT22;33988;47.992;8.820;2022-12-18T09:53:24;0.50;65.80
48043;DHT22;33988;47.992;8.820;2022-12-18T09:55:54;0.60;65.80
48043;DHT22;33988;47.992;8.820;2022-12-18T09:58:40;0.60;65.80
48043;DHT22;33988;47.992;8.820;2022-12-18T10:01:22;0.70;65.90
48043;DHT22;33988;47.992;8.820;2022-12-18T10:03:53;0.70;65.90
48043;DHT22;33988;47.992;8.820;2022-12-18T10:15:13;0.80;65.50
48043;DHT22;33988;47.992;8.820;2022-12-18T10:18:17;0.80;65.60
48043;DHT22;33988;47.992;8.820;2022-12-18T10:20:58;0.80;65.50
48043;DHT22;33988;47.992;8.820;2022-12-18T10:26:21;0.90;65.60
48043;DHT22;33988;47.992;8.820;2022-12-18T10:28:48;0.90;65.50
48043;DHT22;33988;47.992;8.820;2022-12-18T10:31:21;0.90;65.50
48043;DHT22;33988;47.992;8.820;2022-12-18T10:33:50;0.90;65.50
48043;DHT22;33988;47.992;8.820;2022-12-18T10:36:23;0.90;65.50
48043;DHT22;33988;47.992;8.820;2022-12-18T10:38:53;0.90;65.40
48043;DHT22;33988;47.992;8.820;2022-12-18T10:44:22;0.90;65.50
48043;DHT22;33988;47.992;8.820;2022-12-18T10:47:06;0.90;65.60
48043;DHT22;33988;47.992;8.820;2022-12-18T10:49:46;1.00;65.70
48043;DHT22;33988;47.992;8.820;2022-12-18T10:54:59;1.10;65.60
48043;DHT22;33988;47.992;8.820;2022-12-18T11:00:28;1.20;65.40
48043;DHT22;33988;47.992;8.820;2022-12-18T11:02:56;1.20;65.40
48043;DHT22;33988;47.992;8.820;2022-12-18T11:07:59;1.20;65.30
48043;DHT22;33988;47.992;8.820;2022-12-18T11:10:37;1.20;66.00
48043;DHT22;33988;47.992;8.820;2022-12-18T11:15:48;1.20;65.30
48043;DHT22;33988;47.992;8.820;2022-12-18T11:21:08;1.20;65.20
48043;DHT22;33988;47.992;8.820;2022-12-18T11:23:43;1.20;65.30
48043;DHT22;33988;47.992;8.820;2022-12-18T11:26:19;1.10;65.10
48043;DHT22;33988;47.992;8.820;2022-12-18T11:29:07;1.20;65.40
48043;DHT22;33988;47.992;8.820;2022-12-18T11:31:35;1.20;65.50
48043;DHT22;33988;47.992;8.820;2022-12-18T11:36:51;1.30;65.40
48043;DHT22;33988;47.992;8.820;2022-12-18T11:39:40;1.40;65.50
48043;DHT22;33988;47.992;8.820;2022-12-18T11:42:19;1.40;65.60
48043;DHT22;33988;47.992;8.820;2022-12-18T11:44:55;1.50;65.60
48043;DHT22;33988;47.992;8.820;2022-12-18T11:52:57;1.60;65.30
48043;DHT22;33988;47.992;8.820;2022-12-18T11:55:51;1.60;65.20
48043;DHT22;33988;47.992;8.820;2022-12-18T12:08:12;1.60;65.10
48043;DHT22;33988;47.992;8.820;2022-12-18T12:11:41;1.60;65.00
48043;DHT22;33988;47.992;8.820;2022-12-18T12:17:03;1.60;65.00
48043;DHT22;33988;47.992;8.820;2022-12-18T12:20:01;1.50;64.90
48043;DHT22;33988;47.992;8.820;2022-12-18T12:23:00;1.50;65.00
48043;DHT22;33988;47.992;8.820;2022-12-18T12:26:19;1.50;65.10
48043;DHT22;33988;47.992;8.820;2022-12-18T12:40:46;1.60;65.30
48043;DHT22;33988;47.992;8.820;2022-12-18T12:43:43;1.70;65.40
48043;DHT22;33988;47.992;8.820;2022-12-18T12:46:18;1.70;65.30
48043;DHT22;33988;47.992;8.820;2022-12-18T12:48:55;1.80;65.20
48043;DHT22;33988;47.992;8.820;2022-12-18T12:51:25;1.80;65.10
48043;DHT22;33988;47.992;8.820;2022-12-18T12:53:58;1.80;65.10
48043;DHT22;33988;47.992;8.820;2022-12-18T13:05:44;1.80;65.00
48043;DHT22;33988;47.992;8.820;2022-12-18T13:08:24;1.80;65.00
48043;DHT22;33988;47.992;8.820;2022-12-18T13:10:54;1.80;65.00
48043;DHT22;33988;47.992;8.820;2022-12-18T13:13:54;1.80;64.90
48043;DHT22;33988;47.992;8.820;2022-12-18T13:16:24;1.80;64.90
48043;DHT22;33988;47.992;8.820;2022-12-18T13:18:57;1.80;64.80
48043;DHT22;33988;47.992;8.820;2022-12-18T13:21:34;1.70;64.80
48043;DHT22;33988;47.992;8.820;2022-12-18T13:24:27;1.70;65.00
48043;DHT22;33988;47.992;8.820;2022-12-18T13:26:56;1.70;65.00
48043;DHT22;33988;47.992;8.820;2022-12-18T13:29:45;1.70;64.90
48043;DHT22;33988;47.992;8.820;2022-12-18T13:32:25;1.70;65.10
48043;DHT22;33988;47.992;8.820;2022-12-18T13:36:00;1.70;65.20
48043;DHT22;33988;47.992;8.820;2022-12-18T13:38:34;1.60;65.20
48043;DHT22;33988;47.992;8.820;2022-12-18T13:41:26;1.70;65.30
48043;DHT22;33988;47.992;8.820;2022-12-18T13:43:58;1.70;65.20
48043;DHT22;33988;47.992;8.820;2022-12-18T13:46:46;1.70;65.20
48043;DHT22;33988;47.992;8.820;2022-12-18T13:51:50;1.70;65.00
48043;DHT22;33988;47.992;8.820;2022-12-18T13:57:04;1.70;65.00
48043;DHT22;33988;47.992;8.820;2022-12-18T13:59:34;1.70;65.00
48043;DHT22;33988;47.992;8.820;2022-12-18T14:02:17;1.70;65.00
48043;DHT22;33988;47.992;8.820;2022-12-18T14:04:48;1.70;65.10
48043;DHT22;33988;47.992;8.820;2022-12-18T14:07:24;1.70;65.00
48043;DHT22;33988;47.992;8.820;2022-12-18T14:10:03;1.70;64.90
48043;DHT22;33988;47.992;8.820;2022-12-18T14:13:03;1.80;65.00
48043;DHT22;33988;47.992;8.820;2022-12-18T14:18:28;1.80;65.10
48043;DHT22;33988;47.992;8.820;2022-12-18T14:21:00;1.80;65.10
48043;DHT22;33988;47.992;8.820;2022-12-18T14:23:41;1.80;65.00
48043;DHT22;33988;47.992;8.820;2022-12-18T14:26:29;1.80;65.00
48043;DHT22;33988;47.992;8.820;2022-12-18T14:29:00;1.80;65.00
48043;DHT22;33988;47.992;8.820;2022-12-18T14:34:51;1.90;65.00
48043;DHT22;33988;47.992;8.820;2022-12-18T14:37:24;1.90;65.00
48043;DHT22;33988;47.992;8.820;2022-12-18T14:40:11;1.90;64.90
48043;DHT22;33988;47.992;8.820;2022-12-18T14:42:41;1.90;64.80
48043;DHT22;33988;47.992;8.820;2022-12-18T14:45:34;1.90;65.70
48043;DHT22;33988;47.992;8.820;2022-12-18T14:51:16;1.90;64.80
48043;DHT22;33988;47.992;8.820;2022-12-18T14:53:53;1.90;64.80
48043;DHT22;33988;47.992;8.820;2022-12-18T14:56:31;1.90;64.70
48043;DHT22;33988;47.992;8.820;2022-12-18T14:59:03;1.90;64.60
48043;DHT22;33988;47.992;8.820;2022-12-18T15:01:36;1.90;64.60
48043;DHT22;33988;47.992;8.820;2022-12-18T15:09:34;1.80;64.40
48043;DHT22;33988;47.992;8.820;2022-12-18T15:12:02;1.80;64.40
48043;DHT22;33988;47.992;8.820;2022-12-18T15:14:40;1.80;64.60
48043;DHT22;33988;47.992;8.820;2022-12-18T15:17:24;1.80;64.60
48043;DHT22;33988;47.992;8.820;2022-12-18T15:19:58;1.70;64.60
48043;DHT22;33988;47.992;8.820;2022-12-18T15:22:33;1.70;64.60
48043;DHT22;33988;47.992;8.820;2022-12-18T15:28:01;1.70;64.90
48043;DHT22;33988;47.992;8.820;2022-12-18T15:30:30;1.60;64.90
48043;DHT22;33988;47.992;8.820;2022-12-18T15:33:24;1.60;64.80
48043;DHT22;33988;47.992;8.820;2022-12-18T15:36:01;1.60;65.00
48043;DHT22;33988;47.992;8.820;2022-12-18T15:38:31;1.60;65.00
48043;DHT22;33988;47.992;8.820;2022-12-18T15:40:59;1.60;65.00
48043;DHT22;33988;47.992;8.820;2022-12-18T15:43:28;1.60;65.00
48043;DHT22;33988;47.992;8.820;2022-12-18T15:48:43;1.60;65.00
48043;DHT22;33988;47.992;8.820;2022-12-18T15:51:31;1.60;65.00
48043;DHT22;33988;47.992;8.820;2022-12-18T15:54:02;1.50;64.90
48043;DHT22;33988;47.992;8.820;2022-12-18T15:56:30;1.50;65.00
48043;DHT22;33988;47.992;8.820;2022-12-18T15:59:20;1.50;65.10
48043;DHT22;33988;47.992;8.820;2022-12-18T16:01:50;1.50;65.10
48043;DHT22;33988;47.992;8.820;2022-12-18T16:04:23;1.50;65.10
48043;DHT22;33988;47.992;8.820;2022-12-18T16:06:51;1.50;65.10
48043;DHT22;33988;47.992;8.820;2022-12-18T16:09:38;1.60;65.20
48043;DHT22;33988;47.992;8.820;2022-12-18T16:12:16;1.60;65.30
48043;DHT22;33988;47.992;8.820;2022-12-18T16:14:45;1.60;65.20
48043;DHT22;33988;47.992;8.820;2022-12-18T16:17:15;1.60;65.10
48043;DHT22;33988;47.992;8.820;2022-12-18T16:19:42;1.60;65.00
48043;DHT22;33988;47.992;8.820;2022-12-18T16:22:25;1.60;65.00
48043;DHT22;33988;47.992;8.820;2022-12-18T16:24:55;1.60;64.90
48043;DHT22;33988;47.992;8.820;2022-12-18T16:27:24;1.60;64.80
48043;DHT22;33988;47.992;8.820;2022-12-18T16:29:53;1.60;64.90
48043;DHT22;33988;47.992;8.820;2022-12-18T16:32:21;1.60;65.00
48043;DHT22;33988;47.992;8.820;2022-12-18T16:34:50;1.60;65.80
48043;DHT22;33988;47.992;8.820;2022-12-18T16:37:17;1.60;64.90
48043;DHT22;33988;47.992;8.820;2022-12-18T16:39:44;1.60;64.90
48043;DHT22;33988;47.992;8.820;2022-12-18T16:42:18;1.60;64.90
48043;DHT22;33988;47.992;8.820;2022-12-18T16:44:47;1.60;65.00
48043;DHT22;33988;47.992;8.820;2022-12-18T16:47:16;1.60;65.00
48043;DHT22;33988;47.992;8.820;2022-12-18T16:49:44;1.60;65.10
48043;DHT22;33988;47.992;8.820;2022-12-18T16:52:12;1.60;65.10
48043;DHT22;33988;47.992;8.820;2022-12-18T16:54:39;1.60;65.10
48043;DHT22;33988;47.992;8.820;2022-12-18T16:57:08;1.60;65.00
48043;DHT22;33988;47.992;8.820;2022-12-18T16:59:38;1.70;65.10
48043;DHT22;33988;47.992;8.820;2022-12-18T17:02:16;1.60;65.00
48043;DHT22;33988;47.992;8.820;2022-12-18T17:04:51;1.60;65.10
48043;DHT22;33988;47.992;8.820;2022-12-18T17:07:19;1.70;65.10
48043;DHT22;33988;47.992;8.820;2022-12-18T17:09:46;1.70;65.10
48043;DHT22;33988;47.992;8.820;2022-12-18T17:12:14;1.70;65.10
48043;DHT22;33988;47.992;8.820;2022-12-18T17:14:41;1.70;65.00
48043;DHT22;33988;47.992;8.820;2022-12-18T17:17:08;1.70;65.00
48043;DHT22;33988;47.992;8.820;2022-12-18T17:19:51;1.70;65.00
48043;DHT22;33988;47.992;8.820;2022-12-18T17:22:20;1.60;64.90
48043;DHT22;33988;47.992;8.820;2022-12-18T17:24:48;1.70;64.90
48043;DHT22;33988;47.992;8.820;2022-12-18T17:27:15;1.70;64.90
48043;DHT22;33988;47.992;8.820;2022-12-18T17:29:44;1.60;64.90
48043;DHT22;33988;47.992;8.820;2022-12-18T17:32:15;1.60;64.90
48043;DHT22;33988;47.992;8.820;2022-12-18T17:34:42;1.60;64.90
48043;DHT22;33988;47.992;8.820;2022-12-18T17:37:12;1.60;65.00
48043;DHT22;33988;47.992;8.820;2022-12-18T17:39:42;1.60;65.00
48043;DHT22;33988;47.992;8.820;2022-12-18T17:42:10;1.60;65.10
48043;DHT22;33988;47.992;8.820;2022-12-18T17:44:42;1.60;65.10
48043;DHT22;33988;47.992;8.820;2022-12-18T17:47:10;1.60;65.10
48043;DHT22;33988;47.992;8.820;2022-12-18T17:49:38;1.60;65.10
48043;DHT22;33988;47.992;8.820;2022-12-18T17:52:05;1.70;65.20
48043;DHT22;33988;47.992;8.820;2022-12-18T17:54:32;1.70;65.20
48043;DHT22;33988;47.992;8.820;2022-12-18T17:56:59;1.70;65.20
48043;DHT22;33988;47.992;8.820;2022-12-18T17:59:28;1.70;65.10
48043;DHT22;33988;47.992;8.820;2022-12-18T18:01:55;1.70;65.10
48043;DHT22;33988;47.992;8.820;2022-12-18T18:04:25;1.80;65.10
48043;DHT22;33988;47.992;8.820;2022-12-18T18:06:54;1.80;65.10
48043;DHT22;33988;47.992;8.820;2022-12-18T18:09:23;1.90;65.10
48043;DHT22;33988;47.992;8.820;2022-12-18T18:11:50;1.90;65.10
48043;DHT22;33988;47.992;8.820;2022-12-18T18:14:35;1.90;65.10
48043;DHT22;33988;47.992;8.820;2022-12-18T18:17:03;2.00;65.10
48043;DHT22;33988;47.992;8.820;2022-12-18T18:19:31;2.00;65.00
48043;DHT22;33988;47.992;8.820;2022-12-18T18:21:59;2.00;65.00
48043;DHT22;33988;47.992;8.820;2022-12-18T18:24:28;2.00;65.00
48043;DHT22;33988;47.992;8.820;2022-12-18T18:26:58;2.10;64.90
48043;DHT22;33988;47.992;8.820;2022-12-18T18:29:28;2.10;64.80
48043;DHT22;33988;47.992;8.820;2022-12-18T18:31:57;2.10;64.80
48043;DHT22;33988;47.992;8.820;2022-12-18T18:34:30;2.10;64.70
48043;DHT22;33988;47.992;8.820;2022-12-18T18:36:59;2.10;64.70